Time;durP1;ratioP1;P1;durP2;ratioP2;P2;SDS_P1;SDS_P2;PMS_P1;PMS_P2;Temp;Humidity;BMP_temperature;BMP_pressure;BME280_temperature;BME280_humidity;BME280_pressure;Samples;Min_cycle;Max_cycle;Signal;HPM_P1;HPM_P2
2023/04/26 00:01:59;;;;;;;17.33;7.32;;;;;;;-1.25;100.00;101726.50;10507465;28;20063;-77
2023/04/26 00:07:00;;;;;;;21.67;10.10;;;;;;;-1.29;100.00;101717.53;10517253;28;20064;-77
2023/04/26 00:12:00;;;;;;;17.52;8.00;;;;;;;-1.34;100.00;101717.06;10524638;28;20067;-77
2023/04/26 00:17:03;;;;;;;17.20;8.65;;;;;;;-1.34;100.00;101711.00;10523543;28;20131;-77
2023/04/26 00:22:04;;;;;;;15.38;7.13;;;;;;;-1.39;100.00;101725.00;10523329;28;20048;-77
2023/04/26 00:27:08;;;;;;;17.47;6.17;;;;;;;-1.51;100.00;101715.19;10522730;28;20476;-77
2023/04/26 00:32:08;;;;;;;17.13;7.97;;;;;;;-1.60;100.00;101716.75;10506525;28;20032;-77
2023/04/26 00:37:10;;;;;;;14.27;7.03;;;;;;;-1.67;100.00;101716.81;10530813;28;20506;-77
2023/04/26 00:42:10;;;;;;;12.88;7.13;;;;;;;-1.77;100.00;101708.13;10530348;28;20488;-77
2023/04/26 00:47:11;;;;;;;16.50;7.63;;;;;;;-1.78;100.00;101718.22;10530683;28;20134;-77
2023/04/26 00:52:11;;;;;;;12.23;7.47;;;;;;;-1.76;100.00;101711.59;10531285;28;20138;-77
2023/04/26 00:57:12;;;;;;;15.10;7.13;;;;;;;-1.84;100.00;101705.63;10531985;28;20052;-76
2023/04/26 01:02:12;;;;;;;17.10;7.55;;;;;;;-1.93;100.00;101720.00;10531762;28;20142;-77
2023/04/26 01:07:13;;;;;;;17.10;9.18;;;;;;;-1.93;100.00;101709.72;10531463;28;20040;-77
2023/04/26 01:12:13;;;;;;;11.77;7.90;;;;;;;-2.03;100.00;101705.25;10512244;28;20059;-77
2023/04/26 01:17:14;;;;;;;15.65;7.70;;;;;;;-2.05;100.00;101703.22;10529552;28;20082;-77
2023/04/26 01:22:15;;;;;;;16.90;9.60;;;;;;;-2.12;100.00;101706.78;10527526;28;20040;-77
2023/04/26 01:27:15;;;;;;;32.10;8.17;;;;;;;-2.13;100.00;101720.34;10529389;28;20054;-77
2023/04/26 01:32:16;;;;;;;13.27;7.97;;;;;;;-2.19;100.00;101723.13;10521705;28;20048;-77
2023/04/26 01:37:16;;;;;;;16.27;7.22;;;;;;;-2.22;100.00;101720.22;10529021;28;20123;-77
2023/04/26 01:42:17;;;;;;;15.05;6.50;;;;;;;-2.27;100.00;101717.16;10528710;28;20152;-77
2023/04/26 01:47:17;;;;;;;15.73;8.15;;;;;;;-2.39;100.00;101718.31;10490496;28;20123;-77
2023/04/26 01:52:18;;;;;;;19.98;9.85;;;;;;;-2.48;100.00;101707.03;10511799;28;20122;-77
2023/04/26 01:57:18;;;;;;;18.25;10.45;;;;;;;-2.58;100.00;101710.19;10528353;28;20127;-77
2023/04/26 02:02:19;;;;;;;19.38;10.68;;;;;;;-2.59;100.00;101709.28;10530568;28;20123;-78
2023/04/26 02:07:20;;;;;;;10.97;6.73;;;;;;;-2.60;100.00;101698.84;10525863;28;20487;-77
2023/04/26 02:12:20;;;;;;;10.80;6.60;;;;;;;-2.71;100.00;101711.34;10527369;28;20040;-77
2023/04/26 02:17:21;;;;;;;14.97;9.47;;;;;;;-2.68;100.00;101704.00;10528232;28;20058;-77
2023/04/26 02:22:24;;;;;;;12.60;7.10;;;;;;;-2.71;100.00;101711.34;10501367;28;20067;-77
2023/04/26 02:27:24;;;;;;;18.42;8.10;;;;;;;-2.71;100.00;101711.34;10498721;28;20066;-77
2023/04/26 02:32:25;;;;;;;16.23;9.10;;;;;;;-2.73;100.00;101709.38;10525849;28;20495;-77
2023/04/26 02:37:26;;;;;;;18.27;10.20;;;;;;;-2.82;100.00;101704.09;10527650;28;20036;-78
2023/04/26 02:42:26;;;;;;;25.83;11.33;;;;;;;-2.99;100.00;101702.16;10509040;28;20034;-78
2023/04/26 02:47:26;;;;;;;30.23;11.17;;;;;;;-3.18;100.00;101700.03;10525242;28;20047;-77
2023/04/26 02:52:27;;;;;;;16.73;9.73;;;;;;;-3.27;100.00;101694.75;10525980;28;20035;-77
2023/04/26 02:57:27;;;;;;;14.50;8.40;;;;;;;-3.25;100.00;101692.38;10507115;28;20110;-77
2023/04/26 03:02:28;;;;;;;17.00;10.53;;;;;;;-3.16;100.00;101696.00;10507719;28;20123;-78
2023/04/26 03:07:28;;;;;;;23.73;12.63;;;;;;;-3.14;100.00;101691.97;10516405;28;20123;-77
2023/04/26 03:12:29;;;;;;;21.43;11.07;;;;;;;-3.13;100.00;101681.00;10527398;28;20128;-78
2023/04/26 03:17:29;;;;;;;21.90;12.20;;;;;;;-3.14;100.00;101674.03;10525682;28;20036;-78
2023/04/26 03:22:30;;;;;;;19.37;12.17;;;;;;;-3.25;100.00;101677.00;10525984;28;20432;-78
2023/04/26 03:27:30;;;;;;;21.13;10.23;;;;;;;-3.31;100.00;101681.44;10523753;28;20129;-78
2023/04/26 03:32:31;;;;;;;21.37;10.30;;;;;;;-3.52;100.00;101680.75;10524556;28;20043;-78
2023/04/26 03:37:31;;;;;;;23.40;12.63;;;;;;;-3.69;100.00;101672.00;10524588;28;20060;-78
2023/04/26 03:42:32;;;;;;;27.27;11.63;;;;;;;-3.68;100.00;101680.59;10526599;28;20052;-78
2023/04/26 03:47:32;;;;;;;30.53;12.90;;;;;;;-3.55;100.00;101673.59;10523652;28;20064;-78
2023/04/26 03:52:33;;;;;;;21.87;11.77;;;;;;;-3.56;100.00;101669.22;10490538;28;20052;-78
2023/04/26 03:57:33;;;;;;;20.13;12.20;;;;;;;-3.60;100.00;101667.03;10521887;28;20531;-78
2023/04/26 04:02:34;;;;;;;26.53;12.77;;;;;;;-3.58;100.00;101665.56;10508242;28;20157;-78
2023/04/26 04:07:35;;;;;;;24.60;12.73;;;;;;;-3.64;100.00;101674.19;10524451;28;20131;-79
2023/04/26 04:12:36;;;;;;;21.47;12.17;;;;;;;-3.64;100.00;101674.19;10530288;28;20444;-78
2023/04/26 04:17:36;;;;;;;26.98;15.68;;;;;;;-3.65;100.00;101675.81;10531493;28;20067;-78
2023/04/26 04:22:40;;;;;;;20.50;12.13;;;;;;;-3.68;100.00;101678.03;10531436;28;20127;-79
2023/04/26 04:27:44;;;;;;;22.10;13.00;;;;;;;-3.51;100.00;101681.66;10530381;28;20043;-78
2023/04/26 04:32:45;;;;;;;24.20;14.02;;;;;;;-3.47;100.00;101681.28;10514448;28;20428;-78
2023/04/26 04:37:46;;;;;;;19.92;13.30;;;;;;;-3.32;100.00;101690.72;10530043;28;20476;-78
2023/04/26 04:42:46;;;;;;;29.03;14.20;;;;;;;-3.21;100.00;101688.50;10513497;28;20028;-78
2023/04/26 04:47:47;;;;;;;19.37;9.60;;;;;;;-3.11;100.00;101686.28;10522601;28;20046;-76
2023/04/26 04:52:47;;;;;;;24.53;11.50;;;;;;;-2.87;100.00;101697.50;10513934;28;20620;-75
2023/04/26 04:57:48;;;;;;;17.23;10.70;;;;;;;-2.73;100.00;101697.44;10527266;28;20062;-76
2023/04/26 05:02:49;;;;;;;18.65;12.52;;;;;;;-2.58;100.00;101698.28;10526480;28;20086;-76
2023/04/26 05:07:49;;;;;;;17.73;8.97;;;;;;;-2.50;100.00;101701.72;10528542;28;20048;-76
2023/04/26 05:12:50;;;;;;;17.37;11.67;;;;;;;-2.28;100.00;101711.81;10528228;28;20177;-77
2023/04/26 05:17:50;;;;;;;20.27;10.90;;;;;;;-2.10;100.00;101719.03;10520779;28;20036;-77
2023/04/26 05:22:51;;;;;;;18.45;10.77;;;;;;;-1.79;100.00;101719.88;10522475;28;20044;-78
2023/04/26 05:27:51;;;;;;;23.33;12.60;;;;;;;-1.37;100.00;101726.06;10528267;28;20131;-78
2023/04/26 05:32:52;;;;;;;21.17;14.05;;;;;;;-0.78;100.00;101725.59;10527487;28;20078;-78
2023/04/26 05:37:52;;;;;;;16.65;10.15;;;;;;;-0.21;100.00;101722.97;10525280;28;20447;-77
2023/04/26 05:42:53;;;;;;;18.55;10.10;;;;;;;0.07;100.00;101718.09;10528758;28;20044;-77
2023/04/26 05:47:54;;;;;;;16.20;10.48;;;;;;;0.55;100.00;101717.81;10527588;28;20040;-77
2023/04/26 05:52:54;;;;;;;17.42;11.23;;;;;;;1.83;100.00;101730.25;10527986;28;20032;-77
2023/04/26 05:57:55;;;;;;;14.68;8.07;;;;;;;2.37;100.00;101726.72;10525627;28;20463;-76
2023/04/26 06:02:56;;;;;;;15.00;9.07;;;;;;;2.53;100.00;101732.56;10528889;28;20126;-76
2023/04/26 06:07:57;;;;;;;14.30;7.70;;;;;;;3.46;100.00;101722.94;10505336;28;20139;-76
2023/04/26 06:12:57;;;;;;;20.10;7.55;;;;;;;4.26;100.00;101713.53;10504303;28;20052;-77
2023/04/26 06:17:58;;;;;;;14.25;7.68;;;;;;;4.69;100.00;101711.13;10507479;28;20094;-76
2023/04/26 06:22:58;;;;;;;25.02;10.25;;;;;;;4.85;100.00;101704.63;10481972;28;20032;-76
2023/04/26 06:27:59;;;;;;;25.35;13.85;;;;;;;5.32;100.00;101717.19;10505307;28;20038;-77
2023/04/26 06:33:00;;;;;;;14.82;8.65;;;;;;;5.66;100.00;101716.41;10506742;28;20484;-76
2023/04/26 06:38:01;;;;;;;19.45;8.95;;;;;;;6.08;100.00;101712.88;10484999;28;20044;-76
2023/04/26 06:43:01;;;;;;;15.88;9.43;;;;;;;6.48;100.00;101720.34;10496398;28;20040;-75
2023/04/26 06:48:03;;;;;;;17.30;9.90;;;;;;;7.08;100.00;101725.69;10501176;28;20044;-77
2023/04/26 06:53:04;;;;;;;13.43;8.63;;;;;;;6.70;100.00;101730.69;10504866;28;20511;-76
2023/04/26 06:58:04;;;;;;;22.45;9.77;;;;;;;6.74;100.00;101735.34;10521008;28;20038;-76
2023/04/26 07:03:05;;;;;;;15.40;8.98;;;;;;;7.14;100.00;101740.09;10522707;28;20115;-78
2023/04/26 07:08:05;;;;;;;14.60;8.93;;;;;;;6.97;100.00;101749.22;10507255;28;20044;-77
2023/04/26 07:13:06;;;;;;;19.85;8.07;;;;;;;6.63;100.00;101751.81;10506151;28;20046;-76
2023/04/26 07:18:07;;;;;;;13.07;8.07;;;;;;;6.30;100.00;101749.31;10498041;28;20060;-77
2023/04/26 07:23:08;;;;;;;12.63;8.90;;;;;;;6.30;100.00;101751.91;10495926;28;20419;-76
2023/04/26 07:28:08;;;;;;;20.08;10.23;;;;;;;6.45;100.00;101757.38;10489027;28;20040;-76
2023/04/26 07:33:09;;;;;;;14.35;8.52;;;;;;;6.90;100.00;101746.94;10478219;28;20563;-76
2023/04/26 07:38:09;;;;;;;17.52;9.00;;;;;;;7.23;100.00;101749.38;10503118;28;20090;-76
2023/04/26 07:43:10;;;;;;;12.43;7.22;;;;;;;7.64;100.00;101748.97;10480387;28;20136;-77
2023/04/26 07:48:10;;;;;;;14.80;7.63;;;;;;;7.73;100.00;101744.44;10490085;28;20046;-78
2023/04/26 07:53:11;;;;;;;15.00;7.43;;;;;;;7.78;100.00;101743.06;10496021;28;20178;-76
2023/04/26 07:58:13;;;;;;;30.50;8.13;;;;;;;8.01;100.00;101733.41;10504810;28;20042;-76
2023/04/26 08:03:15;;;;;;;15.45;7.03;;;;;;;8.19;100.00;101725.97;10507254;28;20040;-75
2023/04/26 08:08:16;;;;;;;;;;;;;;;8.02;100.00;101737.81;10481205;28;20036;-75
2023/04/26 08:13:16;;;;;;;11.23;6.38;;;;;;;9.30;100.00;101738.75;10509177;28;20303;-76
2023/04/26 08:18:17;;;;;;;11.15;5.43;;;;;;;11.53;100.00;101739.44;10489868;28;20067;-76
2023/04/26 08:23:18;;;;;;;15.57;4.63;;;;;;;11.39;93.21;101746.47;10520594;28;20392;-76
2023/04/26 08:28:19;;;;;;;12.05;6.45;;;;;;;9.76;99.77;101761.78;10513842;28;20066;-75
2023/04/26 08:33:19;;;;;;;6.53;4.40;;;;;;;9.16;100.00;101759.63;10489782;28;20158;-76
2023/04/26 08:38:21;;;;;;;12.93;5.32;;;;;;;8.91;100.00;101764.84;10501928;28;20054;-75
2023/04/26 08:43:21;;;;;;;12.25;6.63;;;;;;;8.58;100.00;101764.31;10485071;28;20033;-75
2023/04/26 08:48:22;;;;;;;9.55;4.88;;;;;;;9.72;100.00;101757.16;10480177;28;20128;-74
2023/04/26 08:53:22;;;;;;;9.40;3.00;;;;;;;11.72;96.37;101741.38;10482293;28;20423;-75
2023/04/26 08:58:23;;;;;;;7.35;3.35;;;;;;;13.45;80.09;101743.56;10490772;28;20127;-75
2023/04/26 09:03:25;;;;;;;5.32;2.50;;;;;;;14.50;64.34;101729.22;10512657;28;20126;-77
2023/04/26 09:08:27;;;;;;;9.25;2.95;;;;;;;12.89;69.40;101742.44;10529518;28;20028;-76
2023/04/26 09:13:29;;;;;;;8.85;3.47;;;;;;;11.00;71.54;101730.22;10531137;28;20039;-76
2023/04/26 09:18:32;;;;;;;7.88;3.17;;;;;;;10.47;77.02;101727.03;10513075;28;20043;-77
2023/04/26 09:23:32;;;;;;;8.98;3.47;;;;;;;9.94;81.38;101738.53;10529612;28;20032;-77
2023/04/26 09:28:33;;;;;;;5.47;3.47;;;;;;;9.26;82.89;101737.63;10528869;28;20430;-77
2023/04/26 09:33:33;;;;;;;7.97;4.38;;;;;;;9.60;86.50;101737.25;10530853;28;20139;-77
2023/04/26 09:38:41;;;;;;;10.27;2.88;;;;;;;12.72;76.02;101734.59;10512140;28;20033;-76
2023/04/26 09:43:41;;;;;;;8.45;3.30;;;;;;;15.11;59.25;101731.88;10510534;28;20522;-77
2023/04/26 09:48:42;;;;;;;8.60;3.08;;;;;;;15.50;54.44;101723.81;10530349;28;20074;-78
2023/04/26 09:53:48;;;;;;;13.00;3.08;;;;;;;14.10;58.71;101730.00;10499155;28;20039;-75
2023/04/26 09:58:52;;;;;;;7.78;4.13;;;;;;;11.82;66.07;101729.72;10424434;28;20033;-76
2023/04/26 10:03:52;;;;;;;5.85;3.47;;;;;;;10.97;68.74;101727.41;10444242;28;20048;-76
2023/04/26 10:08:53;;;;;;;10.73;3.80;;;;;;;10.67;67.34;101719.50;10444216;28;20047;-76
2023/04/26 10:13:53;;;;;;;6.47;3.78;;;;;;;10.39;71.93;101723.03;10443304;28;20033;-76
2023/04/26 10:18:54;;;;;;;6.88;2.95;;;;;;;11.02;70.34;101720.72;10442501;28;20524;-76
2023/04/26 10:23:55;;;;;;;7.68;3.42;;;;;;;11.13;70.46;101724.91;10442230;28;20163;-77
2023/04/26 10:28:55;;;;;;;9.43;4.07;;;;;;;11.26;63.15;101715.13;10443794;28;20037;-77
2023/04/26 10:34:18;;;;;;;9.98;3.05;;;;;;;11.21;61.25;101706.09;10469221;28;20070;-76
2023/04/26 10:39:23;;;;;;;7.38;2.95;;;;;;;11.13;62.44;101705.66;10463015;28;20056;-77
2023/04/26 10:44:36;;;;;;;6.30;3.40;;;;;;;11.12;64.58;101707.38;10482564;28;20033;-77
2023/04/26 10:49:47;;;;;;;11.35;4.68;;;;;;;11.45;67.74;101701.41;10486176;28;20480;-77
2023/04/26 10:54:49;;;;;;;7.10;3.03;;;;;;;11.42;66.53;101703.84;10483506;28;20036;-77
2023/04/26 11:00:15;;;;;;;;;;;;;;;11.92;67.17;101694.38;10467341;28;20044;-77
2023/04/26 11:05:36;;;;;;;8.73;5.32;;;;;;;12.68;65.79;101694.94;10522450;28;19920;-77
2023/04/26 11:10:37;;;;;;;5.45;3.72;;;;;;;13.14;62.13;101686.78;10506408;28;20040;-76
2023/04/26 11:15:38;;;;;;;8.73;3.40;;;;;;;13.04;60.71;101693.31;10506999;28;20048;-77
2023/04/26 11:20:38;;;;;;;5.82;3.17;;;;;;;12.80;60.89;101684.19;10505348;28;20064;-76
2023/04/26 11:25:39;;;;;;;9.00;3.20;;;;;;;11.97;61.37;101676.28;10524477;28;20415;-77
2023/04/26 11:30:39;;;;;;;10.82;3.47;;;;;;;13.49;58.71;101664.00;10506488;28;20084;-77
2023/04/26 11:35:40;;;;;;;6.22;3.78;;;;;;;14.17;57.06;101668.00;10490302;28;20139;-77
2023/04/26 11:40:41;;;;;;;7.95;3.20;;;;;;;14.43;54.32;101669.19;10488967;28;20066;-77
2023/04/26 11:45:41;;;;;;;7.53;2.83;;;;;;;13.37;56.63;101671.25;10489895;28;20059;-76
2023/04/26 11:50:42;;;;;;;4.50;2.63;;;;;;;13.60;52.78;101668.88;10505652;28;20105;-77
2023/04/26 11:55:43;;;;;;;7.32;3.10;;;;;;;13.44;57.58;101665.50;10505102;28;20119;-77
2023/04/26 12:01:10;;;;;;;7.95;3.08;;;;;;;13.51;58.45;101664.09;10490051;28;20043;-77
2023/04/26 12:06:10;;;;;;;9.77;4.93;;;;;;;15.36;54.10;101651.16;10520402;28;20612;-77
2023/04/26 12:11:11;;;;;;;4.45;3.42;;;;;;;15.84;49.21;101660.97;10494164;28;20257;-77
2023/04/26 12:16:12;;;;;;;8.35;5.05;;;;;;;13.92;52.01;101657.25;10476170;28;20036;-78
2023/04/26 12:21:12;;;;;;;6.10;3.47;;;;;;;13.46;55.95;101655.06;10506121;28;20032;-77
2023/04/26 12:26:13;;;;;;;5.35;3.08;;;;;;;12.49;52.62;101651.97;10521716;28;20521;-78
2023/04/26 12:31:14;;;;;;;5.47;3.45;;;;;;;11.78;53.71;101648.13;10495359;28;20035;-78
2023/04/26 12:36:14;;;;;;;12.20;3.90;;;;;;;11.32;57.16;101676.19;10509039;28;20119;-77
2023/04/26 12:41:16;;;;;;;10.25;5.80;;;;;;;11.22;61.45;101663.38;10513964;28;20064;-78
2023/04/26 12:46:16;;;;;;;8.97;4.00;;;;;;;11.68;55.41;101663.34;10505554;28;20504;-78
2023/04/26 12:51:17;;;;;;;7.30;3.53;;;;;;;14.01;51.35;101661.16;10526807;28;20110;-78
2023/04/26 12:56:17;;;;;;;7.43;3.67;;;;;;;13.35;49.97;101668.56;10476776;28;20123;-78
2023/04/26 13:01:18;;;;;;;9.75;3.60;;;;;;;12.54;61.80;101668.84;10512360;28;20032;-78
2023/04/26 13:06:18;;;;;;;7.40;3.35;;;;;;;12.27;60.11;101665.69;10505249;28;20040;-78
2023/04/26 13:11:19;;;;;;;7.45;3.35;;;;;;;12.60;54.21;101656.03;10475185;28;20564;-78
2023/04/26 13:16:19;;;;;;;6.75;3.03;;;;;;;12.51;56.01;101652.06;10500819;28;20079;-78
2023/04/26 13:21:20;;;;;;;9.68;2.97;;;;;;;12.54;56.57;101650.47;10502261;28;20114;-78
2023/04/26 13:26:20;;;;;;;8.20;3.20;;;;;;;12.85;58.62;101662.56;10491286;28;20036;-78
2023/04/26 13:31:21;;;;;;;6.30;3.55;;;;;;;12.27;55.76;101660.44;10511673;28;20475;-77
2023/04/26 13:36:21;;;;;;;11.25;4.60;;;;;;;12.05;58.77;101656.66;10509990;28;20060;-78
2023/04/26 13:41:22;;;;;;;7.70;4.30;;;;;;;12.48;54.35;101653.69;10506875;28;20127;-78
2023/04/26 13:46:23;;;;;;;6.40;2.78;;;;;;;12.43;53.56;101644.69;10501420;28;20118;-77
2023/04/26 13:51:29;;;;;;;6.50;2.70;;;;;;;12.25;56.37;101654.22;10510080;28;20028;-77
2023/04/26 13:56:29;;;;;;;6.18;3.08;;;;;;;11.98;52.74;101654.50;10524180;28;20040;-77
2023/04/26 14:01:30;;;;;;;7.30;2.92;;;;;;;12.98;53.00;101652.69;10508843;28;20070;-77
2023/04/26 14:06:33;;;;;;;7.63;3.63;;;;;;;13.03;53.75;101651.19;10506920;28;20491;-77
2023/04/26 14:11:34;;;;;;;7.13;3.80;;;;;;;12.90;54.06;101640.06;10526593;28;20063;-78
2023/04/26 14:16:35;;;;;;;12.20;3.85;;;;;;;12.88;53.89;101643.44;10522426;28;20127;-78
2023/04/26 14:21:35;;;;;;;9.85;3.17;;;;;;;13.30;49.12;101648.13;10523864;28;20124;-77
2023/04/26 14:26:36;;;;;;;6.15;3.05;;;;;;;13.80;50.71;101633.88;10526479;28;20059;-77
2023/04/26 14:31:36;;;;;;;10.48;3.50;;;;;;;15.44;51.09;101633.88;10523154;28;20036;-78
2023/04/26 14:36:37;;;;;;;8.93;4.03;;;;;;;16.47;47.42;101630.75;10523862;28;20476;-78
2023/04/26 14:41:37;;;;;;;6.93;4.13;;;;;;;16.99;47.64;101625.50;10506253;28;20123;-77
2023/04/26 14:46:38;;;;;;;5.75;4.35;;;;;;;17.68;43.15;101624.13;10523900;28;20127;-78
2023/04/26 14:51:38;;;;;;;7.57;3.40;;;;;;;17.68;44.64;101621.50;10501463;28;20067;-78
2023/04/26 14:56:39;;;;;;;8.38;4.28;;;;;;;16.86;43.77;101627.69;10525040;28;20076;-77
2023/04/26 15:01:39;;;;;;;6.63;3.30;;;;;;;16.81;43.64;101621.34;10525398;28;20174;-77
2023/04/26 15:06:40;;;;;;;9.02;4.57;;;;;;;17.22;45.14;101620.94;10524936;28;20501;-77
2023/04/26 15:11:40;;;;;;;8.18;3.88;;;;;;;16.48;44.84;101611.41;10525655;28;20177;-77
2023/04/26 15:16:41;;;;;;;10.07;4.03;;;;;;;13.92;48.67;101625.69;10525345;28;20036;-77
2023/04/26 15:21:41;;;;;;;5.22;3.78;;;;;;;12.04;47.84;101615.50;10525527;28;20059;-77
2023/04/26 15:26:43;;;;;;;7.82;3.25;;;;;;;11.47;53.12;101610.63;10528153;28;20093;-77
2023/04/26 15:31:44;;;;;;;5.75;3.25;;;;;;;11.59;53.55;101605.16;10525716;28;20482;-77
2023/04/26 15:36:44;;;;;;;8.20;3.40;;;;;;;11.41;56.99;101602.44;10525018;28;20052;-76
2023/04/26 15:41:45;;;;;;;11.63;5.43;;;;;;;11.30;59.48;101607.97;10487034;28;20128;-77
2023/04/26 15:46:45;;;;;;;9.57;3.65;;;;;;;11.54;58.55;101602.31;10510138;28;20451;-77
2023/04/26 15:51:46;;;;;;;6.15;3.05;;;;;;;11.85;59.32;101603.97;10525729;28;20040;-77
2023/04/26 15:56:46;;;;;;;7.25;3.08;;;;;;;12.08;59.35;101601.72;10525737;28;20063;-77
2023/04/26 16:01:47;;;;;;;6.50;3.72;;;;;;;12.17;55.54;101596.03;10526412;28;20055;-76
2023/04/26 16:06:47;;;;;;;7.40;3.42;;;;;;;11.57;59.50;101601.56;10532487;28;20487;-77
2023/04/26 16:11:48;;;;;;;5.78;2.65;;;;;;;11.07;58.18;101618.84;10512524;28;20058;-77
2023/04/26 16:16:48;;;;;;;7.80;3.28;;;;;;;10.96;59.82;101615.59;10529709;28;20561;-77
2023/04/26 16:21:49;;;;;;;9.85;3.95;;;;;;;10.98;60.16;101608.72;10514147;28;20087;-77
2023/04/26 16:26:49;;;;;;;5.80;3.95;;;;;;;10.65;60.54;101611.19;10530289;28;20090;-77
2023/04/26 16:31:50;;;;;;;7.82;3.65;;;;;;;10.43;61.44;101604.66;10531030;28;20149;-77
2023/04/26 16:36:50;;;;;;;14.55;5.60;;;;;;;9.96;63.14;101609.69;10526044;28;20122;-77
2023/04/26 16:41:52;;;;;;;9.10;3.83;;;;;;;9.36;63.42;101611.13;10532055;28;20046;-77
2023/04/26 16:46:53;;;;;;;8.35;3.78;;;;;;;9.01;66.85;101607.13;10525397;28;20033;-77
2023/04/26 16:51:57;;;;;;;8.25;5.15;;;;;;;8.90;66.61;101611.63;10531945;28;20064;-77
2023/04/26 16:56:58;;;;;;;6.80;3.72;;;;;;;8.99;70.91;101608.75;10513236;28;20040;-77
2023/04/26 17:01:58;;;;;;;9.35;4.65;;;;;;;8.96;69.76;101607.72;10530096;28;20035;-77
2023/04/26 17:06:58;;;;;;;8.60;4.10;;;;;;;8.81;67.67;101611.94;10530090;28;20112;-76
2023/04/26 17:11:59;;;;;;;5.57;3.85;;;;;;;8.80;71.10;101613.63;10510728;28;20047;-77
2023/04/26 17:16:59;;;;;;;7.30;4.00;;;;;;;8.87;70.97;101612.34;10527781;28;20461;-77
2023/04/26 17:22:00;;;;;;;12.70;5.38;;;;;;;8.96;72.01;101620.78;10526907;28;20060;-77
2023/04/26 17:27:01;;;;;;;9.05;4.00;;;;;;;8.92;70.34;101610.03;10526124;28;20066;-77
2023/04/26 17:32:02;;;;;;;8.50;4.13;;;;;;;8.87;72.95;101616.66;10527943;28;20131;-77
2023/04/26 17:37:03;;;;;;;8.98;5.10;;;;;;;8.79;73.10;101623.97;10527052;28;20042;-77
2023/04/26 17:42:03;;;;;;;9.30;4.03;;;;;;;8.70;76.80;101628.59;10528019;28;20530;-77
2023/04/26 17:47:04;;;;;;;9.18;4.72;;;;;;;8.55;72.65;101624.13;10525780;28;20484;-77
2023/04/26 17:52:05;;;;;;;8.85;4.15;;;;;;;8.40;74.21;101628.28;10526661;28;20040;-77
2023/04/26 17:57:06;;;;;;;8.15;5.05;;;;;;;8.31;77.68;101625.91;10509734;28;20645;-77
2023/04/26 18:02:07;;;;;;;8.43;5.13;;;;;;;8.24;79.95;101629.81;10526101;28;20044;-76
2023/04/26 18:07:07;;;;;;;12.40;5.60;;;;;;;8.12;81.42;101635.06;10527602;28;20056;-77
2023/04/26 18:12:08;;;;;;;10.45;5.07;;;;;;;8.01;87.35;101638.63;10523247;28;20165;-77
2023/04/26 18:17:11;;;;;;;13.10;6.32;;;;;;;7.85;90.07;101634.06;10527329;28;20135;-77
2023/04/26 18:22:12;;;;;;;11.10;5.60;;;;;;;7.74;89.77;101638.47;10524970;28;20032;-77
2023/04/26 18:27:12;;;;;;;8.93;5.57;;;;;;;7.61;96.02;101637.59;10528717;28;20039;-76
2023/04/26 18:32:13;;;;;;;12.63;5.57;;;;;;;7.55;99.57;101639.75;10525357;28;20032;-77
2023/04/26 18:37:14;;;;;;;10.07;6.43;;;;;;;7.49;100.00;101639.31;10524931;28;20503;-77
2023/04/26 18:42:14;;;;;;;11.50;7.13;;;;;;;7.29;100.00;101654.41;10525223;28;20051;-76
2023/04/26 18:47:15;;;;;;;10.55;6.97;;;;;;;7.16;100.00;101657.81;10525483;28;20067;-76
2023/04/26 18:52:15;;;;;;;13.23;7.03;;;;;;;7.04;100.00;101665.59;10524155;28;20046;-76
2023/04/26 18:57:20;;;;;;;16.17;8.05;;;;;;;6.98;100.00;101666.84;10527217;28;20094;-76
2023/04/26 19:02:21;;;;;;;12.90;6.95;;;;;;;6.84;100.00;101669.31;10508373;28;20032;-76
2023/04/26 19:07:22;;;;;;;14.30;7.70;;;;;;;6.87;100.00;101666.03;10522230;28;20383;-76
2023/04/26 19:12:23;;;;;;;34.45;10.32;;;;;;;6.73;100.00;101670.19;10523180;28;20491;-76
2023/04/26 19:17:24;;;;;;;17.05;7.55;;;;;;;6.72;100.00;101677.06;10524143;28;20173;-76
2023/04/26 19:22:24;;;;;;;11.20;6.47;;;;;;;6.79;100.00;101685.34;10522012;28;20043;-75
2023/04/26 19:27:25;;;;;;;10.98;5.50;;;;;;;6.77;100.00;101693.06;10521593;28;20068;-75
2023/04/26 19:32:26;;;;;;;14.30;7.18;;;;;;;6.71;100.00;101698.69;10505482;28;20377;-77
2023/04/26 19:37:26;;;;;;;10.10;6.10;;;;;;;6.64;100.00;101690.31;10522322;28;20115;-76
2023/04/26 19:42:27;;;;;;;12.45;7.07;;;;;;;6.57;100.00;101696.72;10522919;28;20075;-75
2023/04/26 19:47:27;;;;;;;15.38;7.00;;;;;;;6.45;100.00;101697.56;10519648;28;20074;-77
2023/04/26 19:52:27;;;;;;;7.35;5.07;;;;;;;6.30;100.00;101697.31;10525171;28;20059;-76
2023/04/26 19:57:28;;;;;;;10.55;5.70;;;;;;;6.22;100.00;101703.59;10521744;28;20060;-77
2023/04/26 20:02:29;;;;;;;9.38;6.13;;;;;;;6.12;100.00;101706.25;10503563;28;20044;-78
2023/04/26 20:07:29;;;;;;;13.27;7.68;;;;;;;5.88;100.00;101719.06;10502364;28;20117;-76
2023/04/26 20:12:30;;;;;;;7.70;3.80;;;;;;;5.57;100.00;101714.88;10524245;28;20039;-77
2023/04/26 20:17:30;;;;;;;19.70;6.80;;;;;;;5.31;100.00;101715.38;10521981;28;20036;-77
2023/04/26 20:22:31;;;;;;;8.05;4.95;;;;;;;5.09;100.00;101723.03;10523271;28;20158;-76
2023/04/26 20:27:31;;;;;;;9.18;4.80;;;;;;;4.94;100.00;101725.28;10519520;28;20097;-77
2023/04/26 20:32:32;;;;;;;11.73;6.18;;;;;;;4.78;100.00;101721.38;10524686;28;20526;-77
2023/04/26 20:37:32;;;;;;;10.82;5.90;;;;;;;4.65;100.00;101723.72;10522845;28;20121;-77
2023/04/26 20:42:33;;;;;;;8.90;5.05;;;;;;;4.55;100.00;101722.94;10522412;28;20119;-76
2023/04/26 20:47:33;;;;;;;9.52;6.13;;;;;;;4.47;100.00;101723.94;10522134;28;20116;-77
2023/04/26 20:52:34;;;;;;;10.00;6.30;;;;;;;4.35;100.00;101723.78;10508246;28;20126;-77
2023/04/26 20:57:35;;;;;;;10.43;5.15;;;;;;;4.25;100.00;101710.81;10530540;28;20539;-77
2023/04/26 21:02:36;;;;;;;9.30;5.55;;;;;;;4.18;100.00;101721.41;10530192;28;25275;-77
2023/04/26 21:07:36;;;;;;;15.07;5.68;;;;;;;4.14;100.00;101722.84;10513215;28;20089;-76
2023/04/26 21:12:37;;;;;;;11.55;7.18;;;;;;;4.19;100.00;101715.47;10531179;28;20123;-77
2023/04/26 21:17:39;;;;;;;8.43;6.00;;;;;;;4.18;100.00;101729.19;10528699;28;20074;-77
2023/04/26 21:22:39;;;;;;;10.52;6.10;;;;;;;4.11;100.00;101738.13;10527769;28;20048;-77
2023/04/26 21:27:40;;;;;;;16.65;7.00;;;;;;;4.07;100.00;101738.63;10528946;28;20067;-77
2023/04/26 21:32:40;;;;;;;13.45;7.53;;;;;;;4.04;100.00;101740.94;10529000;28;20033;-77
2023/04/26 21:37:41;;;;;;;11.15;6.95;;;;;;;3.99;100.00;101734.44;10528785;28;20062;-77
2023/04/26 21:42:41;;;;;;;12.27;6.97;;;;;;;3.96;100.00;101740.25;10527987;28;20499;-76
2023/04/26 21:47:42;;;;;;;12.65;7.93;;;;;;;3.96;100.00;101735.06;10529851;28;20481;-77
2023/04/26 21:52:42;;;;;;;15.40;6.85;;;;;;;3.91;100.00;101732.09;10527427;28;20466;-76
2023/04/26 21:57:43;;;;;;;10.77;8.10;;;;;;;3.88;100.00;101730.91;10528787;28;20036;-77
2023/04/26 22:02:43;;;;;;;18.67;8.57;;;;;;;3.79;100.00;101731.91;10500876;28;20166;-77
2023/04/26 22:07:44;;;;;;;16.35;7.05;;;;;;;3.71;100.00;101738.06;10526238;28;20459;-76
2023/04/26 22:12:45;;;;;;;8.90;6.25;;;;;;;3.52;100.00;101735.53;10498363;28;20060;-77
2023/04/26 22:17:46;;;;;;;10.50;7.07;;;;;;;3.33;100.00;101738.13;10486285;28;20407;-77
2023/04/26 22:22:46;;;;;;;13.02;8.07;;;;;;;3.06;100.00;101746.09;10491849;28;20390;-76
2023/04/26 22:27:47;;;;;;;11.30;9.38;;;;;;;2.81;100.00;101742.03;10524189;28;20068;-76
2023/04/26 22:32:52;;;;;;;13.10;7.30;;;;;;;2.58;100.00;101744.25;10498975;28;20043;-75
2023/04/26 22:37:53;;;;;;;14.63;7.63;;;;;;;2.30;100.00;101752.00;10507269;28;20077;-77
2023/04/26 22:42:57;;;;;;;14.05;8.98;;;;;;;2.10;100.00;101751.75;10490906;28;20452;-76
2023/04/26 22:47:58;;;;;;;18.00;10.00;;;;;;;1.92;100.00;101756.97;10504675;28;20476;-76